Sunday, May 29, 2016
15:23 UTC
  |  Log In   |  Register Free
Airport Search:

Boulder Municipal Airport
(KBDU)

Boulder Municipal Airport Diagram
No Airport Diagram Available

FAA data valid effective Mar 31 2016 - May 26 2016 (unless otherwise noted).

 
 
 
 
 
 
 
 
 
 
 
 
 
 
Summary: Boulder Municipal (BDU)

Weather Summary


METAR for KBDU is not available. Closest METAR is for KLMO
KBDU  (most recent observation was updatred at 29:15 UTC)
291517Z AUTO 00000KT 10SM CLR 17/05 A3017 RMK AO2

KLMO  (8.0 nm SW)   (most recent observation was updated at 29:15 UTC)
291514Z AUTO 00000KT 10SM CLR 18/06 A3018 RMK AO2 T01800055

KEIK  (8.4 nm NW)   (most recent observation was updated at 29:15 UTC)
291515Z AUTO 00000KT 10SM CLR 17/04 A3017 RMK AO2 T01730036

TAF for KBDU is not available.
KBJC  (9.3 nm NW)   (most recent observation was updatred at 29:11 UTC)
291124Z 2912/3012 VRB05KT P6SM FEW080 SCT200 FM291900 08007KT P6SM SCT070 SCT160 FM292100 15011KT P6SM SCT070 BKN140 PROB30 2921/3001 VRB18G30KT -TSRA BKN070CB FM300100 26011KT P6SM FEW070 SCT140 BKN220


KDEN  (27.6 nm NW)   (most recent observation was updatred at 29:15 UTC)
AMD 291505Z 2915/3018 24007KT P6SM FEW150 SCT220 FM291600 VRB05KT P6SM FEW080 SCT160 FM291800 03005KT P6SM SCT070 SCT160 FM292100 10011KT P6SM VCTS SCT070CB BKN110 TEMPO 2921/3001 VRB15G25KT FM300100 23011KT P6SM FEW070 SCT140 BKN220


KBKF  (29.8 nm NW)   (most recent observation was updatred at 29:09 UTC)
290905Z 2909/3015 19009KT 9999 FEW100 QNH3016INS BECMG 2917/2918 14009KT 9999 VCSH FEW060 SCT150 QNH3012INS BECMG 2920/2921 14012KT 8000 -SHRA VCTS SCT060CB BKN100 QNH3009INS TEMPO 2921/3003 VRB25G35KT 3200 TSRAGS BKN060CB BECMG 3002/3003 19009KT 9999 NSW SCT060 SCT150 QNH3011INS TX22/2923Z TN09/2913Z
GlobalAir.com is loading additional information.
 Current Weather at BDU
59.0 F° (15.0 C°)
Fair
North winds at 0.0 mph
Pressure:
30.17 in
Humidity:
42%
Wind:
Calm
Dew Point:
35.6 F° (2.0 C°)
Visibility:
10.00 mi
BDU NOAA Radar

Runway Summary

ID Dimensions Surface Instrument Approaches
08/26 75 ft x 4100 ft Asphalt, Good Condition N/A
08G/26G 20 ft x 4100 ft Asphalt or Turf, Fair Condition N/A

Communications Summary


CTAF122.725
UNICOM122.725
ATISN/A
WX AWOS-3
CLEARANCE DELIVERYN/A

Terminal Procedures Summary


No terminal procedures available for BDU





Closest Alternate Airports with Instrument Procedures

KLMO - Vance Brand - 9.2 nm NE from BDU

KEIK - Erie Municipal - 9.6 nm SE from BDU

KBJC - Rocky Mountain Metropolitan - 10.7 nm SE from BDU

KFNL - Fort Collins-Loveland Municipal - 30.7 nm NE from BDU

KDEN - Denver International - 31.8 nm SE from BDU

KAPA - Centennial - 38.1 nm SE from BDU

KFTG - Front Range - 40.3 nm SE from BDU

KGXY - Greeley-Weld County - 41.7 nm NE from BDU

K20V - Mc Elroy Airfield - 60.5 nm NW from BDU

KCYS - Cheyenne Regional/Jerry Olson Field - 80.2 nm NE from BDU

Find All Airport Services Find A Hotel Find A Rental Car Find A Golf Course Find A Restaurant $100 Hamburger



FBO's on the Field
FBO Company Facility Photos Services Transportation Aviation Fuel Prices: Prices include tax
Catering Weather Repair Courtesy Rental Type 100LL JetA JetA+ MOGAS 8087
 
Journeys Aviation

Currently rated 4.8 by 2 people
FS:Phillips 66
Last Updated: May-19
Login to update fuel prices
SS:
Contact Journeys AviationMore FBO Information
 
Add another FBO Facility Photos Catering Weather Repair Courtesy Rental Type 100LL JetA JetA+ MOGAS 8087
Services Transportation Aviation Fuel Prices: Prices include tax


model-print
model-print
model-print
model-print